createdAt,value
2023-04-17T00:00:34.906Z,53.76
2023-04-17T00:03:03.498Z,53.51
2023-04-17T00:05:33.947Z,53.30
2023-04-17T00:08:02.515Z,53.40
2023-04-17T00:10:30.574Z,53.43
2023-04-17T00:12:58.819Z,53.69
2023-04-17T00:15:27.244Z,53.57
2023-04-17T00:17:56.958Z,53.53
2023-04-17T00:20:25.146Z,53.55
2023-04-17T00:22:53.305Z,53.76
2023-04-17T00:25:21.317Z,53.76
2023-04-17T00:27:50.852Z,53.67
2023-04-17T00:30:19.184Z,53.68
2023-04-17T00:32:47.190Z,53.80
2023-04-17T00:35:16.998Z,53.83
2023-04-17T00:37:45.084Z,53.30
2023-04-17T00:40:13.962Z,53.88
2023-04-17T00:42:42.001Z,53.88
2023-04-17T00:45:11.541Z,53.86
2023-04-17T00:47:39.913Z,53.80
2023-04-17T00:50:09.609Z,53.70
2023-04-17T00:52:39.172Z,53.54
2023-04-17T00:55:09.009Z,53.54
2023-04-17T00:57:37.351Z,53.77
2023-04-17T01:00:08.560Z,53.40
2023-04-17T01:02:37.414Z,53.68
2023-04-17T01:05:06.135Z,53.80
2023-04-17T01:07:34.280Z,53.93
2023-04-17T01:10:03.985Z,53.80
2023-04-17T01:12:32.285Z,53.73
2023-04-17T01:15:00.334Z,53.79
2023-04-17T01:17:29.050Z,53.79
2023-04-17T01:19:59.311Z,53.64
2023-04-17T01:22:27.419Z,53.65
2023-04-17T01:24:56.973Z,53.66
2023-04-17T01:27:25.220Z,53.54
2023-04-17T01:29:53.383Z,53.64
2023-04-17T01:32:22.818Z,53.69
2023-04-17T01:34:59.110Z,53.61
2023-04-17T01:37:29.768Z,53.58
2023-04-17T01:40:05.193Z,53.64
2023-04-17T01:42:34.083Z,53.67
2023-04-17T01:45:03.355Z,53.37
2023-04-17T01:47:32.770Z,53.53
2023-04-17T01:50:02.331Z,53.72
2023-04-17T01:52:37.880Z,53.66
2023-04-17T01:55:16.067Z,53.67
2023-04-17T01:57:49.003Z,53.49
2023-04-17T02:00:20.742Z,53.38
2023-04-17T02:02:56.418Z,53.63
2023-04-17T02:08:31.569Z,53.46
2023-04-17T02:11:12.941Z,53.45
2023-04-17T02:13:59.461Z,53.12
2023-04-17T02:16:29.325Z,53.29
2023-04-17T02:19:03.579Z,53.16
2023-04-17T02:21:35.844Z,53.20
2023-04-17T02:24:06.704Z,53.44
2023-04-17T02:26:50.712Z,53.25
2023-04-17T02:29:36.590Z,53.03
2023-04-17T02:32:19.559Z,53.18
2023-04-17T02:34:49.070Z,53.16
2023-04-17T02:37:17.857Z,53.21
2023-04-17T02:39:46.386Z,53.18
2023-04-17T02:42:15.963Z,53.08
2023-04-17T02:44:46.830Z,53.05
2023-04-17T02:47:15.124Z,53.18
2023-04-17T02:49:43.777Z,53.27
2023-04-17T02:52:12.043Z,53.40
2023-04-17T02:58:21.930Z,53.50
2023-04-17T03:00:51.988Z,53.18
2023-04-17T03:03:20.454Z,53.25
2023-04-17T03:05:49.188Z,53.26
2023-04-17T03:08:18.073Z,53.16
2023-04-17T03:10:49.049Z,53.25
2023-04-17T03:13:17.563Z,53.22
2023-04-17T03:15:45.820Z,53.18
2023-04-17T03:18:16.120Z,53.20
2023-04-17T03:20:47.735Z,52.92
2023-04-17T03:23:16.682Z,53.19
2023-04-17T03:25:46.260Z,53.16
2023-04-17T03:28:14.406Z,53.39
2023-04-17T03:30:42.648Z,53.21
2023-04-17T03:33:11.289Z,53.24
2023-04-17T03:35:44.690Z,53.23
2023-04-17T03:38:18.750Z,53.34
2023-04-17T03:40:47.898Z,53.13
2023-04-17T03:43:16.085Z,53.27
2023-04-17T03:45:47.044Z,53.24
2023-04-17T03:48:15.287Z,53.02
2023-04-17T03:50:45.116Z,53.01
2023-04-17T03:53:14.011Z,53.16
2023-04-17T03:55:46.102Z,52.99
2023-04-17T03:58:14.802Z,53.05
2023-04-17T04:00:44.149Z,53.02
2023-04-17T04:03:18.739Z,53.10
2023-04-17T04:05:49.208Z,52.83
2023-04-17T04:08:17.555Z,53.05
2023-04-17T04:13:30.099Z,52.85
2023-04-17T04:16:11.461Z,52.81
2023-04-17T04:18:40.872Z,52.92
2023-04-17T04:21:25.965Z,52.95
2023-04-17T04:27:09.532Z,52.71
2023-04-17T04:29:38.525Z,52.80
2023-04-17T04:32:09.915Z,52.77
2023-04-17T04:34:41.058Z,52.52
2023-04-17T04:37:10.178Z,52.78
2023-04-17T04:39:39.575Z,52.82
2023-04-17T04:42:10.510Z,52.70
2023-04-17T04:44:42.352Z,52.69
2023-04-17T04:47:12.161Z,52.77
2023-04-17T04:49:41.102Z,52.64
2023-04-17T04:52:22.726Z,52.66
2023-04-17T04:54:52.216Z,52.67
2023-04-17T04:57:24.473Z,52.70
2023-04-17T04:59:53.266Z,52.82
2023-04-17T05:02:24.797Z,52.66
2023-04-17T05:04:53.641Z,53.00
2023-04-17T05:07:23.328Z,52.77
2023-04-17T05:09:55.072Z,52.69
2023-04-17T05:12:25.719Z,52.89
2023-04-17T05:14:53.877Z,52.96
2023-04-17T05:17:22.172Z,52.88
2023-04-17T05:19:51.048Z,53.08
2023-04-17T05:22:21.976Z,53.00
2023-04-17T05:24:51.020Z,53.13
2023-04-17T05:27:19.067Z,53.21
2023-04-17T05:29:48.598Z,53.04
2023-04-17T05:32:16.836Z,53.19
2023-04-17T05:34:44.864Z,53.00
2023-04-17T05:37:12.858Z,53.17
2023-04-17T05:39:41.446Z,53.09
2023-04-17T05:42:09.694Z,53.11
2023-04-17T05:44:37.854Z,53.37
2023-04-17T05:47:07.654Z,53.33
2023-04-17T05:49:36.312Z,53.28
2023-04-17T05:52:04.821Z,53.37
2023-04-17T05:54:33.035Z,53.37
2023-04-17T05:57:01.087Z,53.33
2023-04-17T05:59:29.244Z,53.40
2023-04-17T06:01:59.663Z,53.42
2023-04-17T06:04:30.191Z,53.69
2023-04-17T06:06:58.892Z,53.60
2023-04-17T06:09:27.554Z,53.62
2023-04-17T06:11:55.743Z,53.57
2023-04-17T06:14:23.865Z,53.56
2023-04-17T06:16:52.098Z,53.54
2023-04-17T06:19:20.948Z,53.68
2023-04-17T06:21:50.460Z,53.92
2023-04-17T06:24:19.066Z,53.54
2023-04-17T06:26:47.189Z,53.54
2023-04-17T06:29:15.720Z,53.61
2023-04-17T06:31:43.792Z,53.46
2023-04-17T06:34:12.093Z,53.44
2023-04-17T06:36:40.391Z,53.21
2023-04-17T06:39:10.342Z,53.36
2023-04-17T06:41:38.672Z,53.42
2023-04-17T06:44:08.841Z,53.36
2023-04-17T06:46:37.064Z,53.37
2023-04-17T06:49:05.092Z,53.37
2023-04-17T06:51:33.151Z,53.34
2023-04-17T06:54:01.679Z,53.35
2023-04-17T06:56:31.499Z,53.37
2023-04-17T06:59:04.521Z,53.37
2023-04-17T07:01:32.618Z,53.32
2023-04-17T07:04:00.788Z,53.42
2023-04-17T07:06:29.901Z,53.41
2023-04-17T07:08:57.966Z,53.32
2023-04-17T07:11:26.251Z,53.10
2023-04-17T07:13:55.764Z,53.09
2023-04-17T07:16:23.976Z,53.22
2023-04-17T07:18:52.557Z,53.19
2023-04-17T07:21:21.030Z,52.97
2023-04-17T07:23:49.394Z,52.66
2023-04-17T07:26:17.539Z,52.81
2023-04-17T07:28:46.447Z,52.87
2023-04-17T07:31:16.273Z,52.77
2023-04-17T07:33:44.507Z,52.83
2023-04-17T07:36:13.067Z,52.73
2023-04-17T07:38:41.947Z,52.85
2023-04-17T07:41:10.347Z,52.67
2023-04-17T07:43:38.981Z,52.67
2023-04-17T07:46:07.480Z,52.62
2023-04-17T07:48:39.795Z,52.57
2023-04-17T07:51:08.216Z,52.48
2023-04-17T07:53:38.717Z,52.11
2023-04-17T07:56:07.391Z,52.06
2023-04-17T07:58:36.519Z,52.25
2023-04-17T08:01:06.054Z,52.31
2023-04-17T08:03:34.410Z,52.25
2023-04-17T08:06:04.172Z,52.14
2023-04-17T08:08:32.640Z,51.99
2023-04-17T08:11:00.659Z,51.92
2023-04-17T08:13:30.837Z,51.98
2023-04-17T08:15:59.703Z,52.00
2023-04-17T08:18:27.901Z,51.82
2023-04-17T08:20:55.947Z,51.65
2023-04-17T08:23:26.032Z,51.48
2023-04-17T08:25:54.092Z,51.45
2023-04-17T08:28:22.069Z,51.17
2023-04-17T08:30:50.220Z,51.34
2023-04-17T08:33:18.664Z,51.18
2023-04-17T08:35:47.082Z,51.26
2023-04-17T08:38:15.937Z,50.97
2023-04-17T08:40:52.189Z,51.06
2023-04-17T08:43:21.275Z,50.90
2023-04-17T08:45:54.234Z,50.73
2023-04-17T08:48:23.100Z,50.45
2023-04-17T08:50:52.944Z,50.31
2023-04-17T08:53:21.832Z,50.04
2023-04-17T08:55:51.304Z,50.12
2023-04-17T08:58:21.961Z,49.68
2023-04-17T09:00:50.445Z,49.63
2023-04-17T09:03:18.490Z,49.41
2023-04-17T09:05:46.938Z,49.06
2023-04-17T09:08:20.901Z,48.91
2023-04-17T09:10:53.747Z,48.62
2023-04-17T09:13:25.068Z,48.56
2023-04-17T09:16:06.359Z,48.47
2023-04-17T09:18:35.654Z,48.41
2023-04-17T09:21:05.265Z,47.91
2023-04-17T09:23:47.124Z,47.72
2023-04-17T09:26:18.473Z,47.78
2023-04-17T09:29:04.251Z,47.41
2023-04-17T09:31:34.604Z,47.32
2023-04-17T09:34:04.873Z,47.42
2023-04-17T09:36:36.899Z,47.28
2023-04-17T09:39:06.349Z,47.15
2023-04-17T09:41:39.474Z,46.89
2023-04-17T09:44:07.568Z,46.53
2023-04-17T09:46:38.288Z,46.33
2023-04-17T09:49:12.314Z,46.05
2023-04-17T09:51:41.028Z,45.85
2023-04-17T09:54:11.746Z,45.55
2023-04-17T09:56:42.148Z,45.50
2023-04-17T09:59:11.161Z,45.26
2023-04-17T10:01:40.885Z,44.83
2023-04-17T10:04:09.527Z,45.23
2023-04-17T10:06:37.914Z,45.03
2023-04-17T10:09:06.043Z,45.41
2023-04-17T10:11:38.696Z,45.28
2023-04-17T10:14:13.197Z,45.40
2023-04-17T10:16:44.010Z,45.49
2023-04-17T10:19:31.997Z,45.61
2023-04-17T10:22:31.742Z,45.66
2023-04-17T10:25:18.869Z,45.91
2023-04-17T10:27:48.807Z,46.14
2023-04-17T10:32:48.140Z,46.25
2023-04-17T10:35:35.923Z,45.93
2023-04-17T10:38:06.361Z,45.95
2023-04-17T10:40:35.999Z,45.95
2023-04-17T10:43:12.552Z,45.73
2023-04-17T10:45:57.247Z,45.90
2023-04-17T10:48:29.989Z,45.79
2023-04-17T10:50:58.501Z,46.00
2023-04-17T10:53:40.959Z,45.54
2023-04-17T10:56:10.339Z,45.76
2023-04-17T10:58:57.077Z,45.70
2023-04-17T11:01:29.020Z,45.64
2023-04-17T11:03:59.658Z,45.65
2023-04-17T11:06:29.350Z,45.85
2023-04-17T11:08:58.091Z,45.47
2023-04-17T11:11:40.617Z,45.32
2023-04-17T11:14:14.638Z,44.91
2023-04-17T11:16:46.354Z,45.23
2023-04-17T11:19:19.888Z,45.07
2023-04-17T11:21:50.532Z,45.24
2023-04-17T11:24:24.566Z,45.00
2023-04-17T11:26:52.791Z,44.68
2023-04-17T11:29:22.491Z,44.88
2023-04-17T11:31:53.281Z,44.35
2023-04-17T11:34:22.631Z,44.27
2023-04-17T11:36:51.260Z,44.33
2023-04-17T11:39:19.943Z,44.16
2023-04-17T11:41:48.010Z,44.20
2023-04-17T11:44:16.712Z,43.71
2023-04-17T11:46:44.966Z,43.92
2023-04-17T11:49:14.570Z,44.01
2023-04-17T11:51:46.304Z,43.71
2023-04-17T11:54:22.082Z,43.79
2023-04-17T11:56:59.907Z,43.67
2023-04-17T11:59:32.196Z,43.73
2023-04-17T12:02:02.034Z,43.77
2023-04-17T12:04:35.165Z,43.75
2023-04-17T12:07:04.029Z,43.88
2023-04-17T12:09:32.694Z,43.93
2023-04-17T12:12:03.975Z,43.56
2023-04-17T12:14:32.139Z,43.96
2023-04-17T12:17:01.490Z,43.91
2023-04-17T12:19:31.842Z,44.03
2023-04-17T12:22:01.650Z,44.03
2023-04-17T12:24:30.247Z,44.28
2023-04-17T12:26:58.900Z,44.42
2023-04-17T12:29:36.766Z,44.56
2023-04-17T12:32:12.919Z,44.72
2023-04-17T12:34:41.437Z,44.97
2023-04-17T12:37:11.626Z,44.88
2023-04-17T12:39:39.588Z,45.67
2023-04-17T12:42:07.608Z,45.22
2023-04-17T12:44:36.213Z,45.18
2023-04-17T12:47:04.323Z,44.75
2023-04-17T12:49:32.494Z,44.17
2023-04-17T12:52:02.581Z,43.77
2023-04-17T12:54:33.360Z,43.83
2023-04-17T12:57:01.598Z,43.15
2023-04-17T12:59:30.279Z,43.31
2023-04-17T13:01:58.708Z,43.31
2023-04-17T13:04:27.122Z,42.97
2023-04-17T13:06:58.211Z,43.50
2023-04-17T13:09:26.928Z,44.45
2023-04-17T13:11:57.761Z,43.74
2023-04-17T13:14:26.033Z,41.81
2023-04-17T13:16:54.215Z,41.17
2023-04-17T13:19:22.489Z,41.44
2023-04-17T13:21:52.431Z,41.24
2023-04-17T13:24:20.539Z,41.20
2023-04-17T13:26:48.574Z,41.28
2023-04-17T13:29:19.530Z,41.36
2023-04-17T13:31:47.952Z,41.39
2023-04-17T13:34:16.330Z,41.15
2023-04-17T13:36:45.141Z,41.46
2023-04-17T13:39:13.840Z,41.56
2023-04-17T13:41:42.355Z,41.59
2023-04-17T13:44:10.591Z,41.94
2023-04-17T13:46:40.958Z,41.69
2023-04-17T13:49:14.797Z,41.49
2023-04-17T13:51:45.607Z,41.46
2023-04-17T13:54:14.199Z,41.37
2023-04-17T13:56:42.859Z,41.47
2023-04-17T13:59:11.604Z,41.36
2023-04-17T14:01:41.440Z,41.64
2023-04-17T14:04:09.949Z,41.61
2023-04-17T14:06:38.351Z,41.37
2023-04-17T14:09:07.533Z,41.30
2023-04-17T14:11:35.507Z,41.14
2023-04-17T14:14:03.506Z,41.13
2023-04-17T14:16:31.654Z,40.74
2023-04-17T14:19:06.686Z,40.68
2023-04-17T14:21:41.302Z,40.78
2023-04-17T14:24:09.364Z,40.41
2023-04-17T14:26:38.252Z,40.47
2023-04-17T14:29:06.281Z,40.29
2023-04-17T14:31:34.410Z,40.67
2023-04-17T14:34:04.390Z,40.41
2023-04-17T14:36:32.398Z,41.04
2023-04-17T14:39:00.767Z,40.82
2023-04-17T14:41:30.832Z,40.50
2023-04-17T14:43:58.844Z,40.51
2023-04-17T14:46:27.857Z,40.46
2023-04-17T14:48:56.834Z,40.99
2023-04-17T14:51:27.260Z,41.13
2023-04-17T14:53:59.159Z,41.23
2023-04-17T14:56:27.417Z,41.25
2023-04-17T14:58:55.951Z,41.16
2023-04-17T15:01:23.977Z,41.22
2023-04-17T15:03:52.466Z,41.22
2023-04-17T15:06:20.593Z,41.55
2023-04-17T15:08:49.968Z,41.27
2023-04-17T15:11:18.032Z,41.35
2023-04-17T15:13:46.044Z,41.67
2023-04-17T15:16:14.062Z,41.44
2023-04-17T15:18:42.050Z,41.36
2023-04-17T15:21:10.100Z,41.43
2023-04-17T15:23:38.786Z,41.54
2023-04-17T15:26:09.202Z,41.52
2023-04-17T15:28:37.593Z,41.29
2023-04-17T15:31:05.587Z,41.27
2023-04-17T15:33:34.267Z,41.83
2023-04-17T15:36:03.027Z,41.59
2023-04-17T15:38:30.956Z,41.61
2023-04-17T15:40:58.988Z,41.45
2023-04-17T15:43:28.523Z,41.60
2023-04-17T15:45:56.611Z,41.11
2023-04-17T15:48:24.602Z,40.93
2023-04-17T15:50:53.235Z,40.95
2023-04-17T15:53:21.441Z,40.87
2023-04-17T15:55:49.602Z,40.94
2023-04-17T15:58:17.630Z,40.63
2023-04-17T16:00:47.028Z,40.77
2023-04-17T16:03:15.213Z,40.78
2023-04-17T16:05:43.351Z,40.43
2023-04-17T16:08:11.295Z,40.29
2023-04-17T16:10:39.276Z,39.93
2023-04-17T16:13:07.234Z,40.21
2023-04-17T16:15:35.279Z,40.41
2023-04-17T16:18:05.398Z,40.31
2023-04-17T16:20:33.484Z,40.37
2023-04-17T16:23:01.394Z,40.73
2023-04-17T16:25:29.346Z,40.47
2023-04-17T16:27:57.326Z,40.75
2023-04-17T16:30:25.358Z,40.54
2023-04-17T16:32:53.394Z,40.79
2023-04-17T16:35:23.055Z,40.62
2023-04-17T16:37:51.069Z,40.86
2023-04-17T16:40:19.926Z,41.03
2023-04-17T16:42:47.992Z,41.08
2023-04-17T16:45:15.996Z,40.92
2023-04-17T16:47:44.225Z,40.96
2023-04-17T16:50:12.762Z,41.13
2023-04-17T16:52:42.190Z,41.23
2023-04-17T16:55:11.010Z,41.28
2023-04-17T16:57:40.760Z,41.06
2023-04-17T17:00:11.339Z,40.86
2023-04-17T17:02:39.531Z,40.99
2023-04-17T17:05:09.227Z,41.11
2023-04-17T17:07:37.235Z,41.22
2023-04-17T17:10:08.191Z,41.16
2023-04-17T17:12:36.174Z,41.17
2023-04-17T17:15:05.174Z,41.13
2023-04-17T17:17:33.355Z,41.20
2023-04-17T17:20:01.767Z,41.28
2023-04-17T17:22:29.769Z,40.96
2023-04-17T17:24:57.795Z,41.07
2023-04-17T17:27:27.541Z,41.17
2023-04-17T17:29:56.578Z,41.48
2023-04-17T17:32:25.778Z,41.13
2023-04-17T17:34:53.977Z,40.98
2023-04-17T17:37:21.962Z,41.17
2023-04-17T17:39:50.062Z,41.23
2023-04-17T17:42:18.212Z,40.95
2023-04-17T17:44:47.671Z,40.81
2023-04-17T17:47:15.700Z,40.55
2023-04-17T17:49:43.707Z,40.33
2023-04-17T17:52:11.856Z,40.32
2023-04-17T17:54:40.070Z,40.18
2023-04-17T17:57:09.151Z,40.21
2023-04-17T17:59:37.165Z,40.39
2023-04-17T18:05:18.697Z,40.63
2023-04-17T18:07:47.057Z,40.96
2023-04-17T18:10:15.250Z,40.85
2023-04-17T18:12:43.429Z,40.81
2023-04-17T18:15:12.236Z,40.71
2023-04-17T18:17:46.686Z,41.00
2023-04-17T18:20:15.139Z,40.82
2023-04-17T18:22:43.164Z,40.91
2023-04-17T18:25:12.083Z,40.79
2023-04-17T18:27:40.030Z,40.92
2023-04-17T18:30:10.178Z,41.36
2023-04-17T18:32:38.200Z,41.96
2023-04-17T18:35:08.779Z,42.24
2023-04-17T18:37:36.790Z,42.04
2023-04-17T18:40:07.475Z,41.51
2023-04-17T18:42:35.444Z,40.84
2023-04-17T18:45:03.666Z,39.73
2023-04-17T18:47:31.824Z,39.53
2023-04-17T18:49:59.849Z,39.05
2023-04-17T18:52:29.366Z,38.11
2023-04-17T18:54:57.364Z,37.45
2023-04-17T18:57:26.145Z,37.22
2023-04-17T18:59:54.857Z,37.19
2023-04-17T19:02:22.934Z,37.30
2023-04-17T19:04:51.126Z,37.68
2023-04-17T19:07:19.169Z,37.95
2023-04-17T19:09:48.619Z,38.35
2023-04-17T19:12:16.805Z,39.25
2023-04-17T19:14:44.746Z,39.51
2023-04-17T19:17:12.927Z,39.62
2023-04-17T19:19:41.064Z,40.53
2023-04-17T19:22:09.091Z,40.85
2023-04-17T19:24:37.316Z,41.11
2023-04-17T19:27:06.835Z,41.48
2023-04-17T19:29:34.938Z,41.61
2023-04-17T19:32:03.442Z,42.23
2023-04-17T19:34:31.412Z,42.59
2023-04-17T19:36:59.473Z,42.42
2023-04-17T19:39:28.482Z,42.88
2023-04-17T19:41:56.452Z,42.96
2023-04-17T19:44:27.820Z,43.36
2023-04-17T19:46:56.887Z,43.55
2023-04-17T19:49:24.960Z,43.77
2023-04-17T19:51:52.917Z,44.23
2023-04-17T19:54:21.076Z,44.13
2023-04-17T19:56:49.251Z,44.54
2023-04-17T19:59:17.218Z,44.70
2023-04-17T20:01:46.880Z,44.87
2023-04-17T20:04:16.712Z,44.75
2023-04-17T20:06:44.963Z,45.50
2023-04-17T20:09:14.703Z,44.94
2023-04-17T20:11:43.001Z,45.37
2023-04-17T20:14:11.379Z,45.35
2023-04-17T20:16:39.523Z,45.59
2023-04-17T20:19:09.650Z,45.60
2023-04-17T20:21:37.746Z,45.64
2023-04-17T20:24:06.410Z,45.84
2023-04-17T20:26:37.266Z,45.89
2023-04-17T20:29:05.776Z,46.21
2023-04-17T20:31:36.446Z,46.28
2023-04-17T20:34:07.008Z,46.18
2023-04-17T20:36:36.708Z,46.33
2023-04-17T20:39:04.803Z,46.79
2023-04-17T20:41:33.834Z,46.82
2023-04-17T20:44:02.253Z,46.81
2023-04-17T20:46:30.709Z,47.21
2023-04-17T20:48:59.168Z,47.05
2023-04-17T20:51:27.632Z,47.32
2023-04-17T20:53:57.136Z,47.03
2023-04-17T20:56:25.413Z,47.45
2023-04-17T20:58:53.877Z,47.63
2023-04-17T21:01:21.927Z,47.27
2023-04-17T21:03:50.096Z,47.52
2023-04-17T21:06:21.155Z,47.85
2023-04-17T21:08:49.216Z,47.74
2023-04-17T21:11:18.574Z,47.69
2023-04-17T21:13:46.486Z,47.68
2023-04-17T21:16:15.053Z,47.85
2023-04-17T21:18:43.375Z,47.87
2023-04-17T21:21:11.361Z,48.19
2023-04-17T21:23:39.455Z,47.76
2023-04-17T21:26:07.716Z,47.96
2023-04-17T21:28:43.148Z,48.19
2023-04-17T21:31:15.626Z,48.11
2023-04-17T21:33:44.258Z,48.06
2023-04-17T21:36:15.971Z,48.04
2023-04-17T21:38:45.199Z,48.42
2023-04-17T21:41:13.433Z,48.28
2023-04-17T21:43:42.885Z,48.12
2023-04-17T21:46:11.587Z,48.44
2023-04-17T21:48:40.736Z,48.34
2023-04-17T21:51:08.946Z,48.14
2023-04-17T21:53:37.951Z,48.53
2023-04-17T21:56:07.233Z,48.30
2023-04-17T21:58:35.525Z,48.34
2023-04-17T22:01:05.091Z,48.31
2023-04-17T22:03:33.198Z,48.44
2023-04-17T22:06:01.912Z,48.48
2023-04-17T22:08:29.977Z,48.57
2023-04-17T22:10:58.029Z,48.52
2023-04-17T22:13:26.621Z,48.53
2023-04-17T22:15:56.391Z,48.41
2023-04-17T22:18:28.077Z,48.57
2023-04-17T22:20:56.279Z,48.46
2023-04-17T22:23:24.630Z,48.52
2023-04-17T22:25:52.968Z,48.39
2023-04-17T22:28:23.042Z,48.40
2023-04-17T22:30:52.655Z,48.60
2023-04-17T22:33:35.981Z,48.79
2023-04-17T22:36:04.910Z,48.66
2023-04-17T22:38:36.626Z,48.77
2023-04-17T22:41:08.223Z,48.92
2023-04-17T22:43:37.415Z,48.99
2023-04-17T22:46:06.879Z,48.68
2023-04-17T22:48:37.222Z,49.10
2023-04-17T22:51:06.302Z,49.08
2023-04-17T22:53:37.643Z,48.98
2023-04-17T22:56:07.035Z,49.22
2023-04-17T22:58:38.956Z,49.18
2023-04-17T23:01:07.133Z,49.34
2023-04-17T23:03:38.408Z,49.22
2023-04-17T23:06:07.556Z,49.37
2023-04-17T23:08:35.967Z,49.57
2023-04-17T23:11:04.962Z,49.51
2023-04-17T23:13:33.146Z,49.69
2023-04-17T23:16:01.149Z,49.59
2023-04-17T23:18:29.100Z,49.84
2023-04-17T23:20:58.591Z,49.59
2023-04-17T23:23:26.850Z,49.57
2023-04-17T23:25:54.907Z,49.79
2023-04-17T23:28:23.097Z,49.81
2023-04-17T23:30:51.211Z,50.04
2023-04-17T23:33:19.318Z,50.06
2023-04-17T23:35:47.380Z,50.02
2023-04-17T23:38:16.784Z,50.20
2023-04-17T23:40:44.864Z,50.19
2023-04-17T23:43:13.139Z,50.54
2023-04-17T23:45:41.180Z,50.60
2023-04-17T23:48:09.854Z,50.49
2023-04-17T23:50:37.837Z,50.57
2023-04-17T23:53:06.057Z,50.70
2023-04-17T23:55:35.792Z,50.77
2023-04-17T23:58:03.968Z,50.92
